Time;durP1;ratioP1;P1;durP2;ratioP2;P2;SDS_P1;SDS_P2;PMS_P1;PMS_P2;Temp;Humidity;BMP_temperature;BMP_pressure;BME280_temperature;BME280_humidity;BME280_pressure;Samples;Min_cycle;Max_cycle;Signal;HPM_P1;HPM_P2
2021/05/20 00:00:31;;;;;;;19.42;12.98;;;;;;;10.31;81.52;98744.97;4025843;87;21099;-84
2021/05/20 00:06:37;;;;;;;22.30;13.72;;;;;;;10.37;81.50;98742.87;4023855;87;21147;-84
2021/05/20 00:12:39;;;;;;;19.67;11.93;;;;;;;10.32;81.03;98744.59;4024661;88;21062;-84
2021/05/20 00:18:41;;;;;;;24.82;12.60;;;;;;;10.19;81.39;98746.06;3974345;88;21569;-84
2021/05/20 00:24:42;;;;;;;25.95;13.45;;;;;;;10.24;81.62;98755.27;3924602;90;21101;-84
2021/05/20 00:30:44;;;;;;;22.93;12.85;;;;;;;10.24;81.57;98746.30;4024968;87;21031;-84
2021/05/20 00:36:51;;;;;;;18.75;11.50;;;;;;;10.16;81.82;98746.82;4025484;87;21110;-84
2021/05/20 00:42:53;;;;;;;18.27;11.48;;;;;;;10.13;81.95;98753.63;4024950;87;21063;-84
2021/05/20 00:48:55;;;;;;;21.95;12.40;;;;;;;10.16;82.03;98755.59;4055451;86;21824;-84
2021/05/20 00:54:59;;;;;;;23.00;12.47;;;;;;;10.00;81.85;98760.49;4066947;86;21066;-84
2021/05/20 01:01:14;;;;;;;20.80;11.65;;;;;;;9.82;82.20;98760.91;4067254;86;21054;-84
2021/05/20 01:07:17;;;;;;;23.92;11.15;;;;;;;9.85;82.27;98766.39;4066613;86;21244;-84
2021/05/20 01:13:21;;;;;;;17.30;10.23;;;;;;;9.85;82.66;98771.86;4066059;86;21069;-84
2021/05/20 01:19:25;;;;;;;23.70;12.00;;;;;;;9.97;82.94;98777.08;4067356;86;21043;-84
2021/05/20 01:25:27;;;;;;;21.15;12.07;;;;;;;9.91;82.47;98769.02;4066546;86;21098;-85
2021/05/20 01:31:31;;;;;;;18.75;10.85;;;;;;;9.84;82.36;98768.93;4009675;86;21579;-84
2021/05/20 01:37:34;;;;;;;16.15;10.40;;;;;;;9.80;82.70;98754.45;3994625;88;21182;-84
2021/05/20 01:43:38;;;;;;;23.57;11.25;;;;;;;9.84;82.57;98771.66;4077682;86;21641;-84
2021/05/20 01:49:51;;;;;;;22.90;12.03;;;;;;;9.95;82.93;98770.40;4035819;86;21117;-84
2021/05/20 01:55:52;;;;;;;17.20;11.48;;;;;;;9.81;82.53;98774.35;4022073;87;21063;-84
2021/05/20 02:01:54;;;;;;;16.30;9.78;;;;;;;9.79;82.89;98761.66;3950369;87;21624;-84
2021/05/20 02:07:55;;;;;;;15.95;9.93;;;;;;;9.77;83.12;98762.61;3924784;89;21172;-84
2021/05/20 02:13:59;;;;;;;17.73;10.25;;;;;;;9.90;83.20;98769.39;3924435;89;21604;-84
2021/05/20 02:20:08;;;;;;;21.00;11.95;;;;;;;9.77;83.02;98772.17;3925037;89;21061;-84
2021/05/20 02:26:16;;;;;;;19.77;13.25;;;;;;;9.71;82.86;98773.08;4028644;87;21562;-84
2021/05/20 02:32:19;;;;;;;20.85;13.35;;;;;;;9.60;82.82;98779.00;4025672;87;21559;-84
2021/05/20 02:38:20;;;;;;;23.73;11.93;;;;;;;9.34;82.90;98783.19;4024264;87;21598;-84
2021/05/20 02:44:25;;;;;;;19.48;13.38;;;;;;;9.36;83.46;98783.61;4025038;88;21074;-84
2021/05/20 02:50:26;;;;;;;21.60;13.10;;;;;;;9.25;83.06;98781.33;3935660;87;21127;-84
2021/05/20 02:56:27;;;;;;;23.95;12.53;;;;;;;9.14;83.57;98789.95;4007730;87;21573;-84
2021/05/20 03:02:29;;;;;;;21.97;13.00;;;;;;;9.08;83.66;98795.53;4008357;87;21073;-84
2021/05/20 03:08:31;;;;;;;23.95;14.10;;;;;;;9.01;83.65;98803.61;4008334;87;21732;-84
2021/05/20 03:14:36;;;;;;;24.27;14.40;;;;;;;8.94;83.84;98804.89;4003102;87;21794;-84
2021/05/20 03:20:43;;;;;;;20.68;13.93;;;;;;;8.97;84.31;98817.80;3995240;87;21061;-84
2021/05/20 03:34:06;;;;;;;23.57;13.05;;;;;;;8.87;84.55;98815.70;3986133;87;37090;-85
2021/05/20 03:40:08;;;;;;;23.87;14.98;;;;;;;9.10;84.72;98826.77;3845740;90;21104;-83
2021/05/20 03:46:09;;;;;;;25.02;15.43;;;;;;;9.06;84.69;98825.94;3858417;91;21154;-84
2021/05/20 03:52:11;;;;;;;22.37;13.58;;;;;;;9.14;85.32;98824.89;3856783;90;21135;-84
2021/05/20 03:58:12;;;;;;;23.25;15.53;;;;;;;9.29;85.49;98827.22;3857331;91;21099;-84
2021/05/20 04:04:15;;;;;;;21.60;14.33;;;;;;;9.34;85.33;98836.46;3853952;91;21471;-84
2021/05/20 04:10:17;;;;;;;18.40;13.28;;;;;;;9.56;85.70;98845.14;3857283;91;21668;-85
2021/05/20 04:16:25;;;;;;;21.17;14.40;;;;;;;9.77;85.36;98849.52;3850551;91;21071;-84
2021/05/20 04:22:27;;;;;;;22.32;14.20;;;;;;;9.90;85.31;98848.08;3855618;90;21155;-84
2021/05/20 04:28:30;;;;;;;21.23;14.40;;;;;;;10.03;85.57;98850.78;3849574;90;21118;-84
2021/05/20 04:34:31;;;;;;;19.52;12.20;;;;;;;10.16;85.30;98858.97;3857900;87;21068;-85
2021/05/20 04:40:41;;;;;;;18.00;12.58;;;;;;;10.23;84.95;98871.91;3898189;90;21702;-85
2021/05/20 04:46:44;;;;;;;22.27;11.85;;;;;;;10.32;84.95;98871.81;3923246;90;21135;-85
2021/05/20 04:52:47;;;;;;;20.32;12.40;;;;;;;10.37;84.83;98880.26;3905579;89;21152;-85
2021/05/20 04:58:50;;;;;;;20.27;12.80;;;;;;;10.45;84.70;98878.59;3851169;91;21092;-84
2021/05/20 05:04:51;;;;;;;21.87;14.53;;;;;;;10.60;84.46;98884.39;3892384;90;21123;-84
2021/05/20 05:10:59;;;;;;;24.40;15.13;;;;;;;10.71;83.92;98888.02;3899441;90;21218;-84
2021/05/20 05:17:07;;;;;;;23.10;14.65;;;;;;;10.75;84.15;98894.33;3831099;91;21132;-85
2021/05/20 05:23:12;;;;;;;19.87;11.93;;;;;;;10.89;84.32;98895.81;3892099;91;21217;-84
2021/05/20 05:29:15;;;;;;;23.12;12.30;;;;;;;11.08;84.09;98892.84;3880015;90;21186;-84
2021/05/20 05:35:18;;;;;;;16.77;10.28;;;;;;;11.29;84.03;98901.77;3881863;91;21694;-84
2021/05/20 05:41:21;;;;;;;18.82;11.50;;;;;;;11.46;83.73;98892.09;3907922;90;21080;-85
2021/05/20 05:47:23;;;;;;;19.48;10.88;;;;;;;11.59;83.62;98890.62;3868789;91;21156;-85
2021/05/20 05:53:27;;;;;;;16.77;10.45;;;;;;;11.67;83.47;98886.17;3853036;92;21104;-85
2021/05/20 05:59:36;;;;;;;21.95;9.98;;;;;;;11.83;83.27;98888.02;3863514;90;21188;-85
2021/05/20 06:05:39;;;;;;;14.00;9.68;;;;;;;11.97;82.65;98900.99;3863182;92;21247;-85
2021/05/20 06:11:43;;;;;;;14.90;9.48;;;;;;;12.01;82.28;98907.30;3863855;91;21120;-85
2021/05/20 06:17:45;;;;;;;16.32;8.60;;;;;;;12.06;82.22;98907.70;3892571;90;21126;-84
2021/05/20 06:24:00;;;;;;;15.78;8.85;;;;;;;12.18;82.06;98907.94;3900224;90;21151;-85
2021/05/20 06:30:11;;;;;;;17.05;10.40;;;;;;;12.41;82.09;98905.64;3878813;91;22185;-84
2021/05/20 06:36:12;;;;;;;13.78;8.65;;;;;;;12.65;81.78;98907.66;3902328;90;21203;-84
2021/05/20 06:42:15;;;;;;;13.83;7.22;;;;;;;12.87;81.35;98913.95;3926478;90;21167;-85
2021/05/20 06:48:23;;;;;;;18.15;10.72;;;;;;;13.14;80.79;98906.93;3917206;90;21135;-85
2021/05/20 06:54:29;;;;;;;16.20;10.28;;;;;;;13.61;80.60;98903.11;3918964;90;21131;-85
2021/05/20 07:00:54;;;;;;;18.87;11.55;;;;;;;14.04;80.42;98902.38;3862387;91;21175;-85
2021/05/20 07:07:20;;;;;;;19.82;12.05;;;;;;;13.93;79.75;98898.30;3937822;90;21147;-85
2021/05/20 07:13:25;;;;;;;16.57;11.93;;;;;;;13.46;79.46;98909.03;3932240;90;21091;-85
2021/05/20 07:19:28;;;;;;;19.95;12.63;;;;;;;13.23;79.25;98914.18;3858307;91;21351;-85
2021/05/20 07:25:30;;;;;;;18.52;11.75;;;;;;;12.99;79.55;98913.56;3944209;90;21131;-84
2021/05/20 07:31:46;;;;;;;18.02;12.25;;;;;;;12.84;79.43;98918.28;3935308;90;21243;-84
2021/05/20 07:37:48;;;;;;;19.48;13.32;;;;;;;12.93;79.76;98915.13;3880811;90;21165;-85
2021/05/20 07:43:50;;;;;;;19.30;12.00;;;;;;;12.84;79.67;98918.28;3789617;92;21112;-85
2021/05/20 07:49:51;;;;;;;20.17;10.13;;;;;;;13.00;80.33;98911.82;3787321;92;22326;-84
2021/05/20 07:56:10;;;;;;;17.55;9.73;;;;;;;13.41;80.14;98905.31;3789571;92;21147;-84
2021/05/20 08:02:48;;;;;;;;;;;;;;;;;;;;;
2021/05/20 08:14:58;;;;;;;3.90;2.58;;;;;;;14.53;77.00;98911.80;3786873;92;21150;-84
2021/05/20 08:21:00;;;;;;;8.83;2.83;;;;;;;14.77;74.91;98916.35;3788901;92;21113;-85
2021/05/20 08:27:02;;;;;;;6.15;2.92;;;;;;;14.71;73.94;98924.07;3793724;91;21725;-84
2021/05/20 08:33:04;;;;;;;5.20;3.37;;;;;;;14.81;70.80;98927.36;3787176;92;21153;-85
2021/05/20 08:39:12;;;;;;;4.08;3.10;;;;;;;15.37;70.07;98929.08;3808667;90;21106;-85
2021/05/20 08:45:29;;;;;;;7.35;2.80;;;;;;;15.63;70.17;98927.66;3841682;91;21141;-84
2021/05/20 08:51:48;;;;;;;;;;;;;;;16.16;67.95;98929.84;3802719;92;21324;-85
2021/05/20 08:58:01;;;;;;;6.10;3.50;;;;;;;15.93;67.06;98936.63;3772854;92;20198;-85
2021/05/20 09:04:03;;;;;;;4.87;3.27;;;;;;;16.18;68.30;98934.33;3832006;91;21149;-85
2021/05/20 09:10:33;;;;;;;5.33;3.40;;;;;;;16.42;66.75;98931.27;3835243;91;21807;-85
2021/05/20 09:16:43;;;;;;;5.50;3.55;;;;;;;15.98;66.62;98930.04;3824705;91;21676;-84
2021/05/20 09:23:07;;;;;;;4.53;2.70;;;;;;;15.76;66.33;98926.53;3831574;91;21547;-85
2021/05/20 09:29:09;;;;;;;5.12;2.17;;;;;;;15.62;65.34;98938.52;3826961;91;21676;-85
2021/05/20 09:35:22;;;;;;;5.05;2.08;;;;;;;15.49;65.26;98937.45;3827210;91;21125;-85
2021/05/20 09:41:39;;;;;;;3.72;2.33;;;;;;;15.75;65.21;98935.43;3820960;91;21183;-85
2021/05/20 09:47:49;;;;;;;6.55;2.12;;;;;;;16.43;63.69;98939.73;3704679;93;21173;-85
2021/05/20 09:54:25;;;;;;;4.20;1.90;;;;;;;16.43;63.41;98933.41;3672506;95;21236;-85
2021/05/20 10:00:40;;;;;;;3.98;2.02;;;;;;;16.29;62.52;98937.16;3717042;94;21111;-85
2021/05/20 10:06:56;;;;;;;6.58;1.80;;;;;;;15.97;62.46;98945.05;3737316;92;22397;-85
2021/05/20 10:13:08;;;;;;;6.25;2.27;;;;;;;15.97;62.05;98943.67;3781509;91;21180;-85
2021/05/20 10:19:18;;;;;;;5.17;2.37;;;;;;;16.16;62.11;98933.36;3794805;91;21198;-85
2021/05/20 10:25:22;;;;;;;4.00;1.77;;;;;;;16.81;59.91;98926.59;3651204;94;21271;-85
2021/05/20 10:31:26;;;;;;;1.82;1.37;;;;;;;17.15;58.76;98922.50;3655116;96;21253;-84
2021/05/20 10:37:42;;;;;;;3.95;1.30;;;;;;;17.71;56.99;98924.89;3787468;91;21657;-85
2021/05/20 10:44:27;;;;;;;4.72;1.15;;;;;;;18.55;57.88;98912.14;3789193;92;21163;-85
2021/05/20 10:51:21;;;;;;;3.55;1.00;;;;;;;19.60;56.95;98914.95;3802484;93;21166;-84
2021/05/20 10:57:47;;;;;;;2.02;0.90;;;;;;;20.52;54.92;98910.37;3722579;93;21756;-86
2021/05/20 11:18:35;;;;;;;4.20;0.90;;;;;;;20.84;51.28;98899.84;3670861;96;21731;-84
2021/05/20 11:24:43;;;;;;;0.90;0.47;;;;;;;21.79;43.07;98899.47;3688382;95;21231;-84
2021/05/20 11:30:45;;;;;;;1.85;0.75;;;;;;;22.58;47.27;98898.95;3658147;95;21266;-85
2021/05/20 11:37:02;;;;;;;2.55;0.60;;;;;;;23.53;46.17;98886.08;3762372;93;21747;-84
2021/05/20 11:43:32;;;;;;;3.45;0.60;;;;;;;23.86;44.53;98901.00;3844828;90;21598;-85
2021/05/20 11:57:22;;;;;;;1.62;0.80;;;;;;;22.84;43.33;98904.48;3720777;94;21247;-85
2021/05/20 12:03:30;;;;;;;1.87;0.60;;;;;;;22.40;43.31;98905.16;3672111;93;21080;-84
2021/05/20 12:09:54;;;;;;;1.25;0.60;;;;;;;22.47;42.68;98898.55;3770840;91;21366;-83
2021/05/20 12:16:07;;;;;;;3.08;0.72;;;;;;;21.84;40.33;98915.61;3886313;91;21682;-85
2021/05/20 12:22:32;;;;;;;5.00;0.80;;;;;;;20.97;41.45;98906.20;3832913;90;21129;-85
2021/05/20 12:28:33;;;;;;;1.50;0.80;;;;;;;20.99;37.96;98897.40;3837278;91;21188;-85
2021/05/20 12:34:42;;;;;;;2.45;1.10;;;;;;;20.09;38.35;98912.22;3848722;91;21101;-85
2021/05/20 12:40:54;;;;;;;1.90;0.50;;;;;;;20.03;38.52;98912.56;3852113;91;21128;-85
2021/05/20 12:47:20;;;;;;;3.90;0.75;;;;;;;20.30;37.57;98910.86;3821485;91;21169;-84
2021/05/20 13:07:46;;;;;;;2.05;0.57;;;;;;;19.32;37.37;98916.47;3856154;89;21158;-84
2021/05/20 13:14:38;;;;;;;1.75;0.47;;;;;;;19.63;37.31;98900.20;3850972;90;21171;-85
2021/05/20 13:27:49;;;;;;;2.37;1.00;;;;;;;19.92;36.45;98909.33;3731787;94;21216;-85
2021/05/20 13:34:47;;;;;;;1.75;0.50;;;;;;;19.44;37.49;98911.59;3738074;91;21172;-85
2021/05/20 13:40:56;;;;;;;5.80;0.72;;;;;;;19.33;36.76;98907.52;3649444;96;21925;-84
2021/05/20 14:01:13;;;;;;;1.95;0.80;;;;;;;19.58;37.09;98904.88;3721529;94;21841;-83
2021/05/20 14:07:31;;;;;;;;;;;;;;;19.66;36.27;98901.49;3781696;92;21317;-84
2021/05/20 14:13:33;;;;;;;5.35;0.82;;;;;;;19.88;36.03;98910.81;3632268;96;20245;-83
2021/05/20 14:19:40;;;;;;;0.65;0.47;;;;;;;19.85;36.04;98917.25;3727906;94;21116;-85
2021/05/20 14:25:57;;;;;;;3.20;0.70;;;;;;;19.95;36.61;98906.43;3726155;94;21186;-85
2021/05/20 14:32:23;;;;;;;2.87;0.57;;;;;;;20.13;36.70;98904.55;3738707;93;21996;-84
2021/05/20 14:38:57;;;;;;;1.27;0.60;;;;;;;20.31;36.27;98911.02;3566062;99;21077;-84
2021/05/20 15:04:57;;;;;;;1.75;0.50;;;;;;;19.34;36.32;98913.27;3584204;97;21233;-84
2021/05/20 15:05:19;;;;;;;0.80;0.50;;;;;;;19.44;37.02;98912.98;3572258;97;21840;-85
2021/05/20 15:12:01;;;;;;;3.10;0.70;;;;;;;19.59;36.96;98916.18;3621843;93;21541;-84
2021/05/20 15:18:02;;;;;;;1.42;0.70;;;;;;;19.14;37.04;98920.25;3828264;91;21145;-85
2021/05/20 15:24:55;;;;;;;2.30;0.93;;;;;;;18.52;37.04;98915.77;3825042;91;21474;-84
2021/05/20 15:31:32;;;;;;;1.87;0.68;;;;;;;18.30;37.03;98910.48;3824734;91;21674;-84
2021/05/20 15:38:04;;;;;;;1.37;0.95;;;;;;;18.28;36.81;98914.87;3760951;93;21151;-84
2021/05/20 15:44:17;;;;;;;4.33;0.93;;;;;;;18.07;37.09;98909.16;3752609;93;21625;-84
2021/05/20 15:50:29;;;;;;;3.00;0.90;;;;;;;18.02;37.33;98911.66;3688817;94;21182;-85
2021/05/20 15:56:31;;;;;;;4.22;1.35;;;;;;;17.78;37.16;98912.91;3731361;94;21123;-84
2021/05/20 16:02:39;;;;;;;2.15;1.10;;;;;;;17.60;38.22;98915.24;3730207;94;21505;-84
2021/05/20 16:08:52;;;;;;;1.05;0.60;;;;;;;17.55;38.88;98923.44;3728008;93;21194;-85
2021/05/20 16:15:01;;;;;;;3.22;1.07;;;;;;;17.57;38.58;98928.55;3741678;94;21255;-84
2021/05/20 16:21:27;;;;;;;5.17;0.60;;;;;;;17.52;39.20;98924.88;3784829;91;22415;-84
2021/05/20 16:40:11;;;;;;;4.40;1.35;;;;;;;17.48;40.18;98940.77;3710465;94;21672;-84
2021/05/20 16:46:15;;;;;;;1.62;0.88;;;;;;;17.30;40.46;98943.80;3736858;92;22436;-84
2021/05/20 16:52:16;;;;;;;5.42;1.07;;;;;;;17.17;40.15;98941.44;3876033;90;21151;-84
2021/05/20 17:04:19;;;;;;;2.02;0.90;;;;;;;17.12;41.02;98946.06;3868729;90;21095;-85
2021/05/20 17:10:23;;;;;;;3.35;1.20;;;;;;;17.11;41.28;98949.45;3777594;91;21147;-85
2021/05/20 17:16:26;;;;;;;4.25;1.75;;;;;;;16.96;41.34;98949.47;3854030;91;21141;-85
2021/05/20 17:22:36;;;;;;;2.45;1.30;;;;;;;16.83;42.03;98952.64;3868429;91;21174;-85
2021/05/20 17:28:50;;;;;;;4.47;1.50;;;;;;;16.72;42.23;98960.30;3854223;90;21622;-85
2021/05/20 17:34:52;;;;;;;5.90;1.80;;;;;;;16.55;42.92;98952.25;3853087;91;21153;-84
2021/05/20 17:40:57;;;;;;;3.15;1.32;;;;;;;16.39;43.08;98963.87;3856001;91;21108;-84
2021/05/20 17:47:06;;;;;;;2.55;1.22;;;;;;;16.19;43.03;98971.23;3846461;91;21189;-84
2021/05/20 17:53:08;;;;;;;4.12;2.00;;;;;;;16.06;43.75;98978.47;3828943;91;21703;-84
2021/05/20 17:59:09;;;;;;;4.67;2.15;;;;;;;15.93;44.98;98979.41;3722594;90;10000941;-83
2021/05/20 18:05:24;;;;;;;10.58;3.15;;;;;;;15.81;45.01;98990.95;3842556;91;21135;-84
2021/05/20 18:18:15;;;;;;;2.40;1.85;;;;;;;15.36;45.55;99008.85;3844439;91;21116;-85
2021/05/20 18:24:27;;;;;;;2.98;1.65;;;;;;;15.18;45.68;99013.73;3840585;91;21214;-84
2021/05/20 18:30:32;;;;;;;4.95;1.70;;;;;;;15.05;45.97;99018.75;3832806;91;21101;-84
2021/05/20 18:36:43;;;;;;;5.33;1.57;;;;;;;14.92;46.47;99023.95;3835434;91;21881;-84
2021/05/20 18:42:48;;;;;;;4.40;1.70;;;;;;;14.80;47.55;99023.02;3839680;91;21104;-85
2021/05/20 18:48:59;;;;;;;3.90;1.30;;;;;;;14.62;48.06;99027.84;3856634;90;21119;-83
2021/05/20 18:55:08;;;;;;;5.45;1.70;;;;;;;14.35;49.06;99035.02;3870561;91;21723;-82
2021/05/20 19:01:13;;;;;;;7.60;2.05;;;;;;;13.86;49.78;99045.52;3745363;91;10000422;-83
2021/05/20 19:13:50;;;;;;;8.03;1.95;;;;;;;13.46;51.20;99063.83;3791265;91;21775;-84
2021/05/20 19:20:01;;;;;;;8.40;1.80;;;;;;;13.34;52.97;99071.67;3761518;92;21150;-83
2021/05/20 19:26:02;;;;;;;7.95;3.27;;;;;;;12.92;53.36;99076.44;3770793;92;22582;-83
2021/05/20 19:32:09;;;;;;;7.33;3.25;;;;;;;12.64;54.08;99063.41;3791429;91;21140;-82
2021/05/20 19:38:15;;;;;;;8.13;4.10;;;;;;;12.58;54.92;99067.70;3816186;93;22078;-84
2021/05/20 19:44:20;;;;;;;13.40;4.45;;;;;;;12.37;55.31;99079.17;3797630;93;21149;-84
2021/05/20 19:50:31;;;;;;;8.13;4.35;;;;;;;12.12;56.25;99085.11;3854465;91;21143;-84
2021/05/20 20:03:11;;;;;;;15.58;5.90;;;;;;;12.07;56.99;99089.58;3925227;90;21151;-85
2021/05/20 20:09:06;;;;;;;11.73;6.78;;;;;;;11.98;57.20;99094.62;3947462;90;21179;-84
2021/05/20 20:15:10;;;;;;;15.03;7.67;;;;;;;11.76;58.10;99099.13;3945048;89;21158;-83
2021/05/20 20:21:16;;;;;;;14.43;8.18;;;;;;;11.54;58.45;99109.69;3938393;90;21214;-83
2021/05/20 20:33:58;;;;;;;18.23;7.53;;;;;;;11.32;59.90;99118.10;3902997;90;21125;-83
2021/05/20 20:46:31;;;;;;;11.63;6.85;;;;;;;10.82;62.26;99125.00;3906795;90;21092;-83
2021/05/20 20:52:31;;;;;;;12.07;7.03;;;;;;;10.77;62.21;99119.23;3797893;91;21441;-83
2021/05/20 20:58:37;;;;;;;15.78;7.83;;;;;;;10.86;62.65;99114.29;3778143;92;21171;-84
2021/05/20 21:04:39;;;;;;;16.40;7.10;;;;;;;10.84;62.80;99123.45;3763810;92;21204;-84
2021/05/20 21:10:46;;;;;;;13.05;7.45;;;;;;;10.61;63.43;99124.72;3841982;90;21227;-83
2021/05/20 21:16:58;;;;;;;15.35;7.70;;;;;;;10.49;63.51;99112.04;3845181;90;21247;-83
2021/05/20 21:22:59;;;;;;;15.45;8.15;;;;;;;10.45;63.77;99121.37;3857575;90;21152;-84
2021/05/20 21:29:09;;;;;;;14.78;7.35;;;;;;;10.39;64.30;99126.95;3839714;90;21116;-84
2021/05/20 21:35:14;;;;;;;12.82;7.40;;;;;;;10.49;64.81;99122.22;3849541;90;21920;-84
2021/05/20 21:41:15;;;;;;;14.33;7.12;;;;;;;10.37;64.62;99108.17;3844503;90;21798;-84
2021/05/20 21:47:21;;;;;;;12.35;6.87;;;;;;;10.26;65.45;99106.44;3813704;90;21137;-84
2021/05/20 21:53:31;;;;;;;19.17;8.00;;;;;;;10.28;65.93;99116.44;3876313;90;21212;-83
2021/05/20 21:59:33;;;;;;;12.43;7.30;;;;;;;10.20;66.13;99110.09;3793721;91;21235;-83
2021/05/20 22:05:40;;;;;;;14.05;6.75;;;;;;;10.13;66.89;99120.91;3767699;92;21697;-83
2021/05/20 22:11:56;;;;;;;;;;;;;;;10.04;67.27;99114.89;3808255;93;21300;-83
2021/05/20 22:17:53;;;;;;;12.03;7.42;;;;;;;9.89;68.31;99117.78;3784172;92;20562;-83
2021/05/20 22:24:04;;;;;;;14.38;7.78;;;;;;;9.76;67.83;99116.39;3819251;93;21149;-83
2021/05/20 22:30:18;;;;;;;11.68;7.55;;;;;;;9.62;68.16;99110.13;3778156;91;21623;-83
2021/05/20 22:36:20;;;;;;;14.60;8.48;;;;;;;9.60;68.57;99122.59;3793394;92;21156;-82
2021/05/20 22:42:24;;;;;;;15.23;9.28;;;;;;;9.52;68.67;99132.62;3867472;90;21183;-84
2021/05/20 22:48:25;;;;;;;12.55;7.87;;;;;;;9.45;68.73;99127.02;3768291;92;21123;-83
2021/05/20 22:54:34;;;;;;;13.78;8.28;;;;;;;9.28;69.21;99120.09;3831627;92;21116;-83
2021/05/20 23:00:45;;;;;;;15.10;8.63;;;;;;;9.26;69.50;99128.42;3918680;90;21180;-82
2021/05/20 23:06:46;;;;;;;11.38;8.05;;;;;;;9.20;69.54;99121.11;3915520;90;21138;-84
2021/05/20 23:12:48;;;;;;;20.60;9.28;;;;;;;9.10;70.62;99117.59;3905510;90;21167;-84
2021/05/20 23:18:53;;;;;;;13.32;8.58;;;;;;;9.13;70.57;99114.73;3915443;90;21128;-83
2021/05/20 23:24:58;;;;;;;14.87;8.70;;;;;;;9.14;70.69;99110.84;3909539;90;21651;-84
2021/05/20 23:31:01;;;;;;;13.72;9.13;;;;;;;9.09;70.96;99108.41;3907638;90;21159;-84
2021/05/20 23:37:06;;;;;;;14.65;9.48;;;;;;;9.04;71.16;99108.13;3916558;90;21743;-84
2021/05/20 23:43:11;;;;;;;17.62;9.55;;;;;;;9.02;71.29;99107.69;3917775;90;21076;-82
2021/05/20 23:49:20;;;;;;;19.70;10.65;;;;;;;8.91;71.44;99108.66;3928001;90;21136;-82
2021/05/20 23:55:22;;;;;;;21.75;10.85;;;;;;;8.97;71.73;99117.53;3840956;90;21168;-83
